Terminal Aerodrome Forecast
Issued by NWS Quad Cities IA IL

Home | Current Version | Previous Version | Text Only | Print | Product List | Glossary On
Versions: 1 2 3 4 5 6 7 8 9 10 11 12 13 14 15 16 17 18 19
000
FTUS43 KDVN 020520
TAFDBQ
TAF
KDBQ 020520Z 0206/0306 20007KT 5SM BR SKC
      TEMPO 0210/0213 3SM BR
     FM021500 21011KT P6SM FEW040 SCT150
     FM030100 18006KT P6SM BKN100 PROB30 0301/0306 P6SM -TSRA
      BKN100CB=

USA.gov is the U.S. government's official web portal to all federal, state and local government web resources and services.